Hovedside
METAR-TAF:

METAR-TAF

Lufthavner :

Stauning lufthavn

Ringkøbing-Skjern, Danmark

breddegrad: 56-00N, lengdegrad: 008-21E, høyde over havet: 5 m

Gjeldene værobservasjon

Denne rapporten ble laget for 5 timer og 13 minutter siden, klokken 15:20 UTC
Vind 8 kt fra Øst-sørøst
Temperatur 5°C
Luftfuktighet 100%
Trykk 1009 hPa
Sikt: 5000 m
Brutte skyer i en høyde av 400 ft
dis

METAR: EKVJ 141520Z 12008KT 5000 BR BKN004 05/05 Q1009

Tid: 21:33 (20:33 UTC)

Varsel

Denne rapporten ble laget for 8 timer og 9 minutter siden, klokken 12:24 UTC
Varsel gyldig fra 14. klokken 12 UTC til 14. klokken 16 UTC
Vind 8 kt fra Sør-sørøst
Sikt: 2000 m
Brutte skyer i en høyde av 300 ft
dis
Midlertidig
fra 14. klokken 12 UTC til 14. klokken 16 UTC
Sikt: 5000 m
Spredte skyer i en høyde av 300 ft

TAF: EKVJ 141224Z 1412/1416 16008KT 2000 BR BKN003 TEMPO 1412/1416 5000 NSW SCT003

Værobservasjoner og værvarsel for over 4000 flyplasser (METAR- og TAF-rapporter).

Tilgjengelige stasjoner er representert av de røde og gule prikkene på kartet.

Hold musepekeren over prikken for å se navnet på stasjonen.

Klikk så for å se værobservasjoner og -varsler.

For å forandre kartet kan du klikke på den grønne knappen med svart kryss for å zoome inn, på den grønne knappen med strek for å zoome ut, eller på de grønne pilene for å se tilstøtende kart.


METAR-TAF: